createdAt,value
2022-12-27T00:00:15.721Z,99642.58
2022-12-27T00:03:04.941Z,99645.92
2022-12-27T00:05:32.570Z,99652.98
2022-12-27T00:08:00.952Z,99655.42
2022-12-27T00:10:28.724Z,99658.93
2022-12-27T00:12:59.799Z,99656.48
2022-12-27T00:15:28.030Z,99652.78
2022-12-27T00:17:59.006Z,99648.69
2022-12-27T00:20:26.722Z,99666.92
2022-12-27T00:22:55.197Z,99673.59
2022-12-27T00:25:24.331Z,99676.98
2022-12-27T00:27:52.623Z,99685.45
2022-12-27T00:30:21.104Z,99697.39
2022-12-27T00:32:48.665Z,99695.80
2022-12-27T00:35:16.378Z,99691.86
2022-12-27T00:37:44.385Z,99696.67
2022-12-27T00:40:13.900Z,99701.45
2022-12-27T00:42:42.360Z,99705.69
2022-12-27T00:45:12.883Z,99706.37
2022-12-27T00:47:43.379Z,99707.37
2022-12-27T00:50:13.035Z,99706.30
2022-12-27T00:52:40.658Z,99717.91
2022-12-27T00:55:09.712Z,99733.24
2022-12-27T00:57:37.370Z,99740.34
2022-12-27T01:00:10.377Z,99735.67
2022-12-27T01:02:38.430Z,99729.42
2022-12-27T01:05:07.862Z,99737.92
2022-12-27T01:07:36.503Z,99749.14
2022-12-27T01:10:06.543Z,99759.39
2022-12-27T01:12:36.631Z,99756.27
2022-12-27T01:15:06.087Z,99759.81
2022-12-27T01:17:35.200Z,99757.00
2022-12-27T01:20:05.794Z,99756.29
2022-12-27T01:22:36.169Z,99767.56
2022-12-27T01:25:05.741Z,99772.48
2022-12-27T01:27:33.958Z,99771.00
2022-12-27T01:30:04.057Z,99769.86
2022-12-27T01:32:34.170Z,99778.38
2022-12-27T01:35:02.302Z,99786.04
2022-12-27T01:37:30.925Z,99791.41
2022-12-27T01:39:58.703Z,99794.04
2022-12-27T01:42:46.684Z,99800.52
2022-12-27T01:45:22.214Z,99797.92
2022-12-27T01:48:13.040Z,99787.68
2022-12-27T01:51:04.670Z,99783.95
2022-12-27T01:53:42.440Z,99794.78
2022-12-27T01:56:26.544Z,99795.16
2022-12-27T01:58:56.928Z,99791.24
2022-12-27T02:01:28.818Z,99789.83
2022-12-27T02:03:58.489Z,99788.45
2022-12-27T02:06:29.299Z,99788.91
2022-12-27T02:09:20.731Z,99790.45
2022-12-27T02:11:55.150Z,99795.38
2022-12-27T02:14:44.899Z,99800.70
2022-12-27T02:17:33.588Z,99801.58
2022-12-27T02:20:22.399Z,99809.17
2022-12-27T02:23:27.398Z,99808.45
2022-12-27T02:26:04.223Z,99799.58
2022-12-27T02:29:02.352Z,99798.69
2022-12-27T02:31:33.900Z,99795.60
2022-12-27T02:34:08.568Z,99808.05
2022-12-27T02:36:39.031Z,99812.82
2022-12-27T02:39:06.834Z,99816.10
2022-12-27T02:41:53.687Z,99817.46
2022-12-27T02:44:40.618Z,99819.35
2022-12-27T02:47:42.371Z,99828.44
2022-12-27T02:50:32.910Z,99833.90
2022-12-27T02:53:39.151Z,99835.75
2022-12-27T02:56:56.700Z,99842.61
2022-12-27T02:59:33.489Z,99851.21
2022-12-27T03:02:41.791Z,99843.44
2022-12-27T03:05:36.703Z,99845.86
2022-12-27T03:08:16.822Z,99840.77
2022-12-27T03:11:15.782Z,99853.45
2022-12-27T03:14:19.984Z,99858.14
2022-12-27T03:16:57.286Z,99873.27
2022-12-27T03:19:52.401Z,99875.83
2022-12-27T03:22:41.639Z,99877.32
2022-12-27T03:25:28.628Z,99880.67
2022-12-27T03:28:47.134Z,99891.65
2022-12-27T03:31:50.048Z,99896.30
2022-12-27T03:34:35.328Z,99901.16
2022-12-27T03:37:32.650Z,99905.61
2022-12-27T03:40:22.790Z,99907.01
2022-12-27T03:43:12.605Z,99909.81
2022-12-27T03:46:33.914Z,99910.69
2022-12-27T03:49:07.324Z,99914.15
2022-12-27T03:52:07.727Z,99914.33
2022-12-27T03:54:43.164Z,99916.72
2022-12-27T03:57:16.791Z,99917.33
2022-12-27T03:59:45.162Z,99912.91
2022-12-27T04:02:13.377Z,99917.48
2022-12-27T04:04:41.298Z,99922.42
2022-12-27T04:07:12.438Z,99927.88
2022-12-27T04:09:58.822Z,99926.20
2022-12-27T04:12:46.079Z,99934.67
2022-12-27T04:15:33.006Z,99933.87
2022-12-27T04:18:20.308Z,99940.80
2022-12-27T04:21:07.415Z,99948.96
2022-12-27T04:23:53.977Z,99951.15
2022-12-27T04:26:40.432Z,99953.20
2022-12-27T04:29:26.972Z,99957.89
2022-12-27T04:32:13.022Z,99961.05
2022-12-27T04:34:43.758Z,99972.13
2022-12-27T04:37:19.475Z,99976.03
2022-12-27T04:40:06.460Z,99976.61
2022-12-27T04:42:54.651Z,99978.27
2022-12-27T04:45:41.788Z,99992.42
2022-12-27T04:48:33.761Z,99990.50
2022-12-27T04:51:20.204Z,100000.65
2022-12-27T04:54:06.345Z,99999.55
2022-12-27T04:56:36.195Z,100004.88
2022-12-27T04:59:22.627Z,100003.23
2022-12-27T05:02:05.430Z,100002.16
2022-12-27T05:04:36.595Z,100011.01
2022-12-27T05:07:25.813Z,100013.56
2022-12-27T05:10:12.588Z,100021.49
2022-12-27T05:12:58.704Z,100023.98
2022-12-27T05:15:28.017Z,100024.45
2022-12-27T05:17:57.324Z,100024.70
2022-12-27T05:20:25.801Z,100029.73
2022-12-27T05:23:13.633Z,100035.72
2022-12-27T05:25:44.565Z,100037.88
2022-12-27T05:28:13.731Z,100038.62
2022-12-27T05:30:43.586Z,100037.41
2022-12-27T05:33:12.699Z,100043.16
2022-12-27T05:35:40.621Z,100042.32
2022-12-27T05:38:08.336Z,100044.31
2022-12-27T05:40:36.602Z,100043.15
2022-12-27T05:43:04.480Z,100049.44
2022-12-27T05:45:34.031Z,100057.62
2022-12-27T05:48:03.383Z,100065.59
2022-12-27T05:50:32.737Z,100069.63
2022-12-27T05:53:11.409Z,100072.92
2022-12-27T05:55:39.358Z,100073.51
2022-12-27T05:58:07.565Z,100067.13
2022-12-27T06:00:35.715Z,100070.33
2022-12-27T06:03:04.874Z,100080.02
2022-12-27T06:05:32.546Z,100083.39
2022-12-27T06:08:01.904Z,100080.39
2022-12-27T06:10:29.709Z,100087.19
2022-12-27T06:13:00.592Z,100088.15
2022-12-27T06:15:28.326Z,100097.23
2022-12-27T06:17:56.586Z,100092.66
2022-12-27T06:20:24.404Z,100097.96
2022-12-27T06:22:53.780Z,100105.75
2022-12-27T06:25:21.381Z,100100.36
2022-12-27T06:27:49.417Z,100096.08
2022-12-27T06:30:17.067Z,100111.31
2022-12-27T06:32:45.197Z,100121.79
2022-12-27T06:35:13.958Z,100123.61
2022-12-27T06:37:41.687Z,100132.66
2022-12-27T06:40:10.953Z,100136.93
2022-12-27T06:42:39.550Z,100138.55
2022-12-27T06:45:09.785Z,100143.20
2022-12-27T06:47:37.670Z,100145.79
2022-12-27T06:50:05.734Z,100135.70
2022-12-27T06:52:33.510Z,100153.41
2022-12-27T06:55:01.080Z,100153.28
2022-12-27T06:57:29.864Z,100153.19
2022-12-27T06:59:59.558Z,100160.65
2022-12-27T07:02:29.350Z,100160.63
2022-12-27T07:04:56.991Z,100155.00
2022-12-27T07:07:24.623Z,100160.77
2022-12-27T07:09:52.282Z,100156.64
2022-12-27T07:12:21.742Z,100159.31
2022-12-27T07:14:50.224Z,100170.45
2022-12-27T07:17:18.689Z,100167.97
2022-12-27T07:19:47.910Z,100181.06
2022-12-27T07:22:17.403Z,100179.02
2022-12-27T07:24:45.068Z,100182.05
2022-12-27T07:27:14.942Z,100187.46
2022-12-27T07:29:45.913Z,100184.56
2022-12-27T07:32:14.033Z,100184.34
2022-12-27T07:34:43.476Z,100192.30
2022-12-27T07:37:11.056Z,100191.88
2022-12-27T07:39:40.482Z,100196.52
2022-12-27T07:42:08.795Z,100202.09
2022-12-27T07:44:38.573Z,100204.61
2022-12-27T07:48:25.433Z,100204.54
2022-12-27T07:50:55.675Z,100204.14
2022-12-27T07:53:23.488Z,100208.02
2022-12-27T07:55:52.135Z,100208.23
2022-12-27T07:58:21.070Z,100211.83
2022-12-27T08:00:50.990Z,100213.38
2022-12-27T08:03:19.992Z,100220.30
2022-12-27T08:05:52.130Z,100226.09
2022-12-27T08:08:25.928Z,100224.05
2022-12-27T08:10:53.757Z,100229.27
2022-12-27T08:13:23.368Z,100227.96
2022-12-27T08:15:53.000Z,100234.64
2022-12-27T08:18:24.941Z,100235.08
2022-12-27T08:20:52.771Z,100237.45
2022-12-27T08:23:22.146Z,100242.48
2022-12-27T08:25:49.688Z,100245.91
2022-12-27T08:28:18.602Z,100252.46
2022-12-27T08:30:46.985Z,100255.13
2022-12-27T08:33:16.268Z,100256.28
2022-12-27T08:35:54.054Z,100261.23
2022-12-27T08:38:23.539Z,100262.77
2022-12-27T08:40:52.161Z,100264.06
2022-12-27T08:43:19.892Z,100260.31
2022-12-27T08:45:49.319Z,100254.02
2022-12-27T08:48:17.495Z,100258.23
2022-12-27T08:50:47.252Z,100265.46
2022-12-27T08:53:16.623Z,100267.41
2022-12-27T08:55:45.913Z,100267.11
2022-12-27T08:58:16.506Z,100275.33
2022-12-27T09:00:44.912Z,100280.02
2022-12-27T09:03:12.683Z,100285.91
2022-12-27T09:05:42.083Z,100286.52
2022-12-27T09:08:12.699Z,100288.23
2022-12-27T09:10:40.302Z,100286.23
2022-12-27T09:13:08.247Z,100287.60
2022-12-27T09:15:38.213Z,100286.55
2022-12-27T09:18:07.057Z,100289.45
2022-12-27T09:20:35.653Z,100283.26
2022-12-27T09:23:05.966Z,100283.80
2022-12-27T09:25:33.839Z,100286.38
2022-12-27T09:28:03.350Z,100286.75
2022-12-27T09:30:31.840Z,100285.91
2022-12-27T09:33:03.311Z,100289.45
2022-12-27T09:35:38.362Z,100292.95
2022-12-27T09:38:09.873Z,100298.34
2022-12-27T09:40:38.091Z,100302.23
2022-12-27T09:43:20.616Z,100300.31
2022-12-27T09:45:55.202Z,100298.71
2022-12-27T09:48:33.311Z,100303.21
2022-12-27T09:51:19.349Z,100296.10
2022-12-27T09:54:14.493Z,100292.28
2022-12-27T09:57:17.809Z,100293.27
2022-12-27T09:59:36.903Z,100294.48
2022-12-27T10:02:28.796Z,100290.40
2022-12-27T10:08:09.667Z,100296.92
2022-12-27T10:11:09.323Z,100291.28
2022-12-27T10:13:54.203Z,100294.95
2022-12-27T10:16:41.450Z,100292.91
2022-12-27T10:19:39.057Z,100294.19
2022-12-27T10:22:35.161Z,100289.17
2022-12-27T10:25:11.138Z,100290.84
2022-12-27T10:27:40.157Z,100292.08
2022-12-27T10:30:22.161Z,100292.56
2022-12-27T10:32:50.557Z,100293.95
2022-12-27T10:35:21.363Z,100286.95
2022-12-27T10:37:50.573Z,100287.71
2022-12-27T10:40:25.543Z,100294.12
2022-12-27T10:43:04.197Z,100296.92
2022-12-27T10:45:38.963Z,100296.84
2022-12-27T10:48:41.494Z,100298.36
2022-12-27T10:51:18.439Z,100294.31
2022-12-27T10:53:46.022Z,100291.47
2022-12-27T10:56:46.324Z,100290.01
2022-12-27T10:59:26.237Z,100289.92
2022-12-27T11:02:01.341Z,100289.27
2022-12-27T11:04:32.720Z,100283.81
2022-12-27T11:07:03.419Z,100288.71
2022-12-27T11:09:36.479Z,100278.73
2022-12-27T11:12:12.228Z,100287.02
2022-12-27T11:14:58.010Z,100287.52
2022-12-27T11:17:50.001Z,100296.73
2022-12-27T11:20:23.414Z,100300.52
2022-12-27T11:22:55.833Z,100308.28
2022-12-27T11:25:27.179Z,100305.20
2022-12-27T11:28:00.947Z,100307.96
2022-12-27T11:30:38.950Z,100301.95
2022-12-27T11:33:47.621Z,100298.92
2022-12-27T11:36:37.269Z,100319.42
2022-12-27T11:39:07.277Z,100305.02
2022-12-27T11:41:42.867Z,100323.63
2022-12-27T11:44:33.807Z,100313.64
2022-12-27T11:47:22.105Z,100322.80
2022-12-27T11:49:55.105Z,100317.58
2022-12-27T11:52:35.333Z,100324.52
2022-12-27T11:55:15.629Z,100332.90
2022-12-27T11:57:52.624Z,100333.80
2022-12-27T12:00:26.729Z,100337.16
2022-12-27T12:03:23.774Z,100336.82
2022-12-27T12:06:14.281Z,100333.80
2022-12-27T12:08:53.983Z,100343.39
2022-12-27T12:11:42.059Z,100345.24
2022-12-27T12:14:18.114Z,100345.77
2022-12-27T12:17:04.392Z,100342.11
2022-12-27T12:20:10.572Z,100341.36
2022-12-27T12:23:14.142Z,100329.94
2022-12-27T12:26:11.363Z,100330.90
2022-12-27T12:29:17.708Z,100336.08
2022-12-27T12:32:14.849Z,100338.38
2022-12-27T12:35:04.955Z,100336.30
2022-12-27T12:37:51.446Z,100338.89
2022-12-27T12:40:51.643Z,100346.77
2022-12-27T12:43:40.416Z,100344.94
2022-12-27T12:46:17.058Z,100341.02
2022-12-27T12:49:16.957Z,100345.39
2022-12-27T12:52:04.606Z,100344.21
2022-12-27T12:54:43.380Z,100344.84
2022-12-27T12:57:32.388Z,100345.64
2022-12-27T13:00:28.189Z,100343.76
2022-12-27T13:03:25.255Z,100357.99
2022-12-27T13:06:09.856Z,100359.96
2022-12-27T13:08:40.103Z,100365.25
2022-12-27T13:11:46.254Z,100362.80
2022-12-27T13:14:27.548Z,100372.66
2022-12-27T13:16:58.915Z,100378.02
2022-12-27T13:19:57.157Z,100376.41
2022-12-27T13:22:45.695Z,100379.40
2022-12-27T13:25:31.011Z,100383.70
2022-12-27T13:28:17.964Z,100381.58
2022-12-27T13:31:26.787Z,100376.40
2022-12-27T13:34:40.026Z,100377.20
2022-12-27T13:37:16.247Z,100376.98
2022-12-27T13:40:07.218Z,100375.96
2022-12-27T13:42:53.529Z,100379.37
2022-12-27T13:46:04.047Z,100382.19
2022-12-27T13:49:13.197Z,100381.05
2022-12-27T13:51:48.113Z,100386.71
2022-12-27T13:54:50.922Z,100382.43
2022-12-27T13:57:25.304Z,100384.95
2022-12-27T14:00:20.469Z,100386.21
2022-12-27T14:03:38.880Z,100388.17
2022-12-27T14:06:31.593Z,100394.08
2022-12-27T14:09:02.780Z,100394.98
2022-12-27T14:12:01.198Z,100396.71
2022-12-27T14:14:30.513Z,100402.42
2022-12-27T14:17:52.389Z,100404.19
2022-12-27T14:20:58.148Z,100412.18
2022-12-27T14:23:28.998Z,100408.90
2022-12-27T14:26:10.184Z,100410.21
2022-12-27T14:28:59.312Z,100416.80
2022-12-27T14:32:08.669Z,100419.39
2022-12-27T14:34:59.323Z,100422.97
2022-12-27T14:38:05.117Z,100426.73
2022-12-27T14:40:39.088Z,100433.75
2022-12-27T14:43:26.759Z,100439.73
2022-12-27T14:46:03.396Z,100439.51
2022-12-27T14:49:00.589Z,100445.23
2022-12-27T14:52:02.413Z,100459.61
2022-12-27T14:55:11.537Z,100457.15
2022-12-27T14:57:52.458Z,100447.61
2022-12-27T15:00:25.801Z,100451.36
2022-12-27T15:03:09.657Z,100456.10
2022-12-27T15:05:41.551Z,100456.39
2022-12-27T15:08:28.007Z,100460.30
2022-12-27T15:11:15.536Z,100457.34
2022-12-27T15:13:55.764Z,100470.92
2022-12-27T15:16:43.480Z,100465.23
2022-12-27T15:19:30.539Z,100464.75
2022-12-27T15:22:37.005Z,100466.65
2022-12-27T15:25:21.607Z,100468.86
2022-12-27T15:28:17.921Z,100471.66
2022-12-27T15:31:06.351Z,100474.55
2022-12-27T15:33:49.370Z,100478.79
2022-12-27T15:36:21.434Z,100478.11
2022-12-27T15:38:55.276Z,100486.54
2022-12-27T15:41:50.529Z,100489.34
2022-12-27T15:44:25.350Z,100490.33
2022-12-27T15:47:33.578Z,100495.38
2022-12-27T15:50:28.907Z,100502.66
2022-12-27T15:53:02.500Z,100511.15
2022-12-27T15:55:46.197Z,100509.95
2022-12-27T15:58:17.347Z,100502.30
2022-12-27T16:01:06.139Z,100503.91
2022-12-27T16:03:42.640Z,100502.51
2022-12-27T16:06:34.779Z,100509.21
2022-12-27T16:09:36.018Z,100512.64
2022-12-27T16:12:12.943Z,100515.96
2022-12-27T16:14:42.960Z,100517.08
2022-12-27T16:17:34.239Z,100520.17
2022-12-27T16:20:23.498Z,100521.88
2022-12-27T16:22:55.730Z,100524.38
2022-12-27T16:25:31.991Z,100525.61
2022-12-27T16:28:06.370Z,100532.63
2022-12-27T16:30:49.338Z,100533.56
2022-12-27T16:33:26.596Z,100535.23
2022-12-27T16:36:14.325Z,100536.42
2022-12-27T16:38:45.579Z,100529.38
2022-12-27T16:41:25.885Z,100539.64
2022-12-27T16:44:00.220Z,100535.67
2022-12-27T16:46:35.336Z,100540.45
2022-12-27T16:49:25.851Z,100543.13
2022-12-27T16:52:21.995Z,100537.38
2022-12-27T16:55:27.455Z,100540.54
2022-12-27T16:58:18.445Z,100542.22
2022-12-27T17:00:49.070Z,100539.69
2022-12-27T17:03:38.047Z,100543.02
2022-12-27T17:06:33.689Z,100544.24
2022-12-27T17:09:09.833Z,100543.29
2022-12-27T17:11:51.624Z,100551.27
2022-12-27T17:14:27.770Z,100551.98
2022-12-27T17:17:00.716Z,100557.88
2022-12-27T17:19:36.117Z,100560.59
2022-12-27T17:22:07.374Z,100562.54
2022-12-27T17:24:37.204Z,100558.39
2022-12-27T17:27:36.579Z,100560.36
2022-12-27T17:30:22.165Z,100561.09
2022-12-27T17:32:55.876Z,100565.64
2022-12-27T17:35:43.543Z,100559.10
2022-12-27T17:38:44.604Z,100565.17
2022-12-27T17:41:49.467Z,100568.07
2022-12-27T17:44:38.919Z,100574.35
2022-12-27T17:47:20.030Z,100574.92
2022-12-27T17:49:49.536Z,100578.86
2022-12-27T17:52:39.719Z,100581.65
2022-12-27T17:55:39.227Z,100582.28
2022-12-27T17:58:12.032Z,100580.95
2022-12-27T18:00:55.057Z,100585.20
2022-12-27T18:03:36.190Z,100585.34
2022-12-27T18:06:05.391Z,100583.83
2022-12-27T18:08:34.500Z,100586.82
2022-12-27T18:11:06.108Z,100591.79
2022-12-27T18:13:39.956Z,100592.04
2022-12-27T18:16:38.434Z,100600.98
2022-12-27T18:19:07.254Z,100599.86
2022-12-27T18:21:36.624Z,100605.63
2022-12-27T18:24:24.494Z,100605.77
2022-12-27T18:27:19.337Z,100606.08
2022-12-27T18:29:48.459Z,100610.29
2022-12-27T18:32:19.124Z,100608.30
2022-12-27T18:35:24.144Z,100609.27
2022-12-27T18:37:56.464Z,100614.02
2022-12-27T18:40:27.135Z,100616.31
2022-12-27T18:42:57.708Z,100622.92
2022-12-27T18:45:31.617Z,100624.73
2022-12-27T18:48:09.998Z,100626.41
2022-12-27T18:50:41.646Z,100630.44
2022-12-27T18:53:33.402Z,100633.70
2022-12-27T18:56:16.075Z,100636.73
2022-12-27T18:59:03.558Z,100637.38
2022-12-27T19:01:48.259Z,100644.09
2022-12-27T19:04:18.380Z,100642.00
2022-12-27T19:07:10.162Z,100642.08
2022-12-27T19:09:49.867Z,100644.59
2022-12-27T19:12:38.446Z,100645.36
2022-12-27T19:15:31.386Z,100644.96
2022-12-27T19:18:04.534Z,100649.19
2022-12-27T19:20:42.546Z,100650.85
2022-12-27T19:23:36.479Z,100653.57
2022-12-27T19:26:09.872Z,100651.45
2022-12-27T19:28:39.429Z,100660.38
2022-12-27T19:31:21.976Z,100663.42
2022-12-27T19:34:05.014Z,100670.83
2022-12-27T19:36:39.273Z,100672.39
2022-12-27T19:39:26.561Z,100674.25
2022-12-27T19:42:00.767Z,100671.46
2022-12-27T19:44:32.492Z,100671.13
2022-12-27T19:47:03.811Z,100674.35
2022-12-27T19:49:42.793Z,100676.98
2022-12-27T19:52:18.488Z,100679.13
2022-12-27T19:54:51.347Z,100679.05
2022-12-27T19:57:19.469Z,100679.64
2022-12-27T19:59:48.992Z,100679.73
2022-12-27T20:02:18.337Z,100685.77
2022-12-27T20:04:50.247Z,100692.04
2022-12-27T20:07:26.271Z,100690.34
2022-12-27T20:09:55.678Z,100691.39
2022-12-27T20:12:25.468Z,100694.21
2022-12-27T20:14:55.608Z,100698.19
2022-12-27T20:17:24.167Z,100695.55
2022-12-27T20:19:53.787Z,100699.63
2022-12-27T20:22:22.124Z,100696.94
2022-12-27T20:24:53.550Z,100697.69
2022-12-27T20:27:23.495Z,100696.27
2022-12-27T20:29:51.584Z,100697.92
2022-12-27T20:32:23.631Z,100696.55
2022-12-27T20:34:51.871Z,100698.37
2022-12-27T20:37:24.594Z,100696.97
2022-12-27T20:39:53.242Z,100698.02
2022-12-27T20:42:24.073Z,100695.80
2022-12-27T20:44:52.913Z,100699.31
2022-12-27T20:47:27.571Z,100699.36
2022-12-27T20:50:01.506Z,100698.41
2022-12-27T20:52:31.315Z,100703.95
2022-12-27T20:55:01.375Z,100700.30
2022-12-27T20:57:32.932Z,100702.23
2022-12-27T21:00:03.764Z,100701.35
2022-12-27T21:02:32.287Z,100708.33
2022-12-27T21:05:02.130Z,100709.13
2022-12-27T21:07:32.765Z,100713.66
2022-12-27T21:10:02.924Z,100715.03
2022-12-27T21:12:32.645Z,100711.10
2022-12-27T21:15:00.396Z,100711.23
2022-12-27T21:17:31.063Z,100702.21
2022-12-27T21:19:59.072Z,100703.63
2022-12-27T21:22:27.760Z,100704.62
2022-12-27T21:24:57.151Z,100703.70
2022-12-27T21:27:24.928Z,100701.29
2022-12-27T21:29:53.971Z,100705.85
2022-12-27T21:32:21.541Z,100711.31
2022-12-27T21:34:49.238Z,100712.66
2022-12-27T21:37:17.653Z,100713.42
2022-12-27T21:39:45.505Z,100715.25
2022-12-27T21:42:14.215Z,100711.74
2022-12-27T21:44:43.024Z,100710.30
2022-12-27T21:47:12.846Z,100716.92
2022-12-27T21:49:41.216Z,100718.17
2022-12-27T21:52:09.038Z,100715.89
2022-12-27T21:54:38.201Z,100713.77
2022-12-27T21:57:06.683Z,100713.17
2022-12-27T21:59:34.762Z,100712.39
2022-12-27T22:02:02.769Z,100711.66
2022-12-27T22:04:31.368Z,100704.86
2022-12-27T22:07:00.739Z,100711.14
2022-12-27T22:09:28.289Z,100713.13
2022-12-27T22:11:56.372Z,100711.73
2022-12-27T22:14:25.831Z,100715.39
2022-12-27T22:16:57.244Z,100711.36
2022-12-27T22:19:24.878Z,100710.82
2022-12-27T22:21:52.923Z,100714.06
2022-12-27T22:24:20.671Z,100721.33
2022-12-27T22:26:49.806Z,100716.39
2022-12-27T22:29:21.432Z,100719.38
2022-12-27T22:31:50.427Z,100716.48
2022-12-27T22:34:18.122Z,100716.91
2022-12-27T22:36:45.737Z,100719.58
2022-12-27T22:39:15.327Z,100716.98
2022-12-27T22:41:43.072Z,100718.48
2022-12-27T22:44:18.444Z,100720.50
2022-12-27T22:49:34.707Z,100719.32
2022-12-27T22:52:02.539Z,100718.31
2022-12-27T22:55:05.719Z,100718.25
2022-12-27T22:57:19.310Z,100722.61
2022-12-27T22:59:48.919Z,100728.10
2022-12-27T23:02:16.817Z,100727.70
2022-12-27T23:04:44.780Z,100733.27
2022-12-27T23:07:16.300Z,100725.30
2022-12-27T23:09:45.544Z,100725.38
2022-12-27T23:12:16.741Z,100726.75
2022-12-27T23:14:44.465Z,100724.90
2022-12-27T23:17:12.610Z,100722.32
2022-12-27T23:19:40.248Z,100720.53
2022-12-27T23:22:08.214Z,100721.05
2022-12-27T23:24:35.851Z,100719.23
2022-12-27T23:27:05.484Z,100713.95
2022-12-27T23:29:35.971Z,100712.00
2022-12-27T23:32:04.159Z,100713.38
2022-12-27T23:34:34.016Z,100714.96
2022-12-27T23:37:02.589Z,100718.36
2022-12-27T23:39:32.597Z,100719.38
2022-12-27T23:42:01.023Z,100721.86
2022-12-27T23:44:33.014Z,100720.95
2022-12-27T23:47:05.421Z,100719.89
2022-12-27T23:49:34.203Z,100730.11
2022-12-27T23:52:02.972Z,100730.47
2022-12-27T23:54:31.605Z,100731.27
2022-12-27T23:57:20.693Z,100733.64
2022-12-27T23:59:49.029Z,100729.77
